sensor_id;sensor_type;location;lat;lon;timestamp;pressure;altitude;pressure_sealevel;temperature;humidity
28354;BME280;15603;50.878;8.036;2023-06-19T00:01:45;148226.56;;;20.93;74.14
28354;BME280;15603;50.878;8.036;2023-06-19T00:04:12;148214.34;;;20.88;74.15
28354;BME280;15603;50.878;8.036;2023-06-19T00:06:39;148271.84;;;21.12;74.12
28354;BME280;15603;50.878;8.036;2023-06-19T00:09:07;148240.03;;;20.99;74.96
28354;BME280;15603;50.878;8.036;2023-06-19T00:11:34;148240.03;;;20.99;75.13
28354;BME280;15603;50.878;8.036;2023-06-19T00:14:01;148211.88;;;20.87;75.17
28354;BME280;15603;50.878;8.036;2023-06-19T00:16:28;148230.25;;;20.95;74.41
28354;BME280;15603;50.878;8.036;2023-06-19T00:18:55;148196.00;;;20.81;74.72
28354;BME280;15603;50.878;8.036;2023-06-19T00:21:23;148207.00;;;20.85;74.71
28354;BME280;15603;50.878;8.036;2023-06-19T00:23:53;148175.19;;;20.72;76.10
28354;BME280;15603;50.878;8.036;2023-06-19T00:26:21;148167.81;;;20.69;76.52
28354;BME280;15603;50.878;8.036;2023-06-19T00:28:52;148091.97;;;20.37;77.04
28354;BME280;15603;50.878;8.036;2023-06-19T00:31:19;148124.97;;;20.51;77.49
28354;BME280;15603;50.878;8.036;2023-06-19T00:33:49;148027.13;;;20.10;77.46
28354;BME280;15603;50.878;8.036;2023-06-19T00:36:17;148072.41;;;20.29;78.39
28354;BME280;15603;50.878;8.036;2023-06-19T00:38:48;148073.63;;;20.29;78.79
28354;BME280;15603;50.878;8.036;2023-06-19T00:41:15;148047.91;;;20.18;79.27
28354;BME280;15603;50.878;8.036;2023-06-19T00:43:44;148068.72;;;20.27;79.04
28354;BME280;15603;50.878;8.036;2023-06-19T00:46:11;148067.50;;;20.27;78.92
28354;BME280;15603;50.878;8.036;2023-06-19T00:48:39;148030.81;;;20.11;80.18
28354;BME280;15603;50.878;8.036;2023-06-19T00:51:07;148032.03;;;20.12;80.06
28354;BME280;15603;50.878;8.036;2023-06-19T00:53:34;148016.09;;;20.05;80.64
28354;BME280;15603;50.878;8.036;2023-06-19T00:56:03;148019.78;;;20.07;81.04
28354;BME280;15603;50.878;8.036;2023-06-19T00:58:30;148006.34;;;20.01;81.64
28354;BME280;15603;50.878;8.036;2023-06-19T01:00:58;147967.22;;;19.85;82.55
28354;BME280;15603;50.878;8.036;2023-06-19T01:03:37;147942.75;;;19.74;83.31
28354;BME280;15603;50.878;8.036;2023-06-19T01:06:09;147947.63;;;19.76;82.10
28354;BME280;15603;50.878;8.036;2023-06-19T01:08:41;147936.63;;;19.72;82.31
28354;BME280;15603;50.878;8.036;2023-06-19T01:11:11;147908.47;;;19.60;82.66
28354;BME280;15603;50.878;8.036;2023-06-19T01:14:06;147925.59;;;19.67;82.90
28354;BME280;15603;50.878;8.036;2023-06-19T01:16:35;147923.16;;;19.66;82.66
28354;BME280;15603;50.878;8.036;2023-06-19T01:19:05;147937.84;;;19.72;81.82
28354;BME280;15603;50.878;8.036;2023-06-19T01:21:32;147910.91;;;19.61;81.99
28354;BME280;15603;50.878;8.036;2023-06-19T01:24:00;147891.34;;;19.53;82.60
28354;BME280;15603;50.878;8.036;2023-06-19T01:26:28;147901.13;;;19.57;82.20
28354;BME280;15603;50.878;8.036;2023-06-19T01:28:56;147907.28;;;19.59;82.07
28354;BME280;15603;50.878;8.036;2023-06-19T01:31:29;147925.59;;;19.67;82.18
28354;BME280;15603;50.878;8.036;2023-06-19T01:33:58;147852.25;;;19.36;82.50
28354;BME280;15603;50.878;8.036;2023-06-19T01:36:28;147897.50;;;19.55;82.58
28354;BME280;15603;50.878;8.036;2023-06-19T01:38:59;147901.13;;;19.57;82.43
28354;BME280;15603;50.878;8.036;2023-06-19T01:41:27;147890.13;;;19.52;82.62
28354;BME280;15603;50.878;8.036;2023-06-19T01:43:55;147930.50;;;19.69;81.76
28354;BME280;15603;50.878;8.036;2023-06-19T01:46:23;147858.34;;;19.39;81.43
28354;BME280;15603;50.878;8.036;2023-06-19T01:48:51;147945.22;;;19.75;80.70
28354;BME280;15603;50.878;8.036;2023-06-19T01:51:19;147956.19;;;19.80;80.61
28354;BME280;15603;50.878;8.036;2023-06-19T01:53:46;147964.75;;;19.84;80.21
28354;BME280;15603;50.878;8.036;2023-06-19T01:56:13;147983.09;;;19.91;80.15
28354;BME280;15603;50.878;8.036;2023-06-19T01:58:40;147973.31;;;19.87;80.36
28354;BME280;15603;50.878;8.036;2023-06-19T02:01:07;147979.41;;;19.90;81.77
28354;BME280;15603;50.878;8.036;2023-06-19T02:03:34;148001.44;;;19.99;81.69
28354;BME280;15603;50.878;8.036;2023-06-19T02:06:02;147981.88;;;19.91;83.95
28354;BME280;15603;50.878;8.036;2023-06-19T02:08:29;147964.75;;;19.84;83.72
28354;BME280;15603;50.878;8.036;2023-06-19T02:10:56;147961.09;;;19.82;84.62
28354;BME280;15603;50.878;8.036;2023-06-19T02:13:23;147979.41;;;19.90;84.33
28354;BME280;15603;50.878;8.036;2023-06-19T02:15:50;147954.97;;;19.79;85.54
28354;BME280;15603;50.878;8.036;2023-06-19T02:18:18;147969.66;;;19.86;85.00
28354;BME280;15603;50.878;8.036;2023-06-19T02:20:45;147957.44;;;19.80;85.21
28354;BME280;15603;50.878;8.036;2023-06-19T02:23:12;147936.63;;;19.72;85.35
28354;BME280;15603;50.878;8.036;2023-06-19T02:25:39;147979.41;;;19.90;84.15
28354;BME280;15603;50.878;8.036;2023-06-19T02:28:08;147954.97;;;19.79;84.81
28354;BME280;15603;50.878;8.036;2023-06-19T02:30:35;147849.78;;;19.35;83.38
28354;BME280;15603;50.878;8.036;2023-06-19T02:33:03;147914.56;;;19.62;84.11
28354;BME280;15603;50.878;8.036;2023-06-19T02:35:30;147910.91;;;19.61;84.23
28354;BME280;15603;50.878;8.036;2023-06-19T02:37:57;147899.91;;;19.56;84.16
28354;BME280;15603;50.878;8.036;2023-06-19T02:40:24;147925.59;;;19.67;83.75
28354;BME280;15603;50.878;8.036;2023-06-19T02:42:53;147875.47;;;19.46;85.61
28354;BME280;15603;50.878;8.036;2023-06-19T02:45:20;147869.34;;;19.43;86.67
28354;BME280;15603;50.878;8.036;2023-06-19T02:47:47;147864.44;;;19.41;86.39
28354;BME280;15603;50.878;8.036;2023-06-19T02:50:14;147843.69;;;19.33;86.69
28354;BME280;15603;50.878;8.036;2023-06-19T02:52:41;147840.00;;;19.31;86.86
28354;BME280;15603;50.878;8.036;2023-06-19T02:55:09;147830.25;;;19.27;86.11
28354;BME280;15603;50.878;8.036;2023-06-19T02:57:36;147830.25;;;19.27;85.98
28354;BME280;15603;50.878;8.036;2023-06-19T03:00:04;147848.56;;;19.35;85.53
28354;BME280;15603;50.878;8.036;2023-06-19T03:02:33;147847.38;;;19.34;86.45
28354;BME280;15603;50.878;8.036;2023-06-19T03:05:00;147853.47;;;19.37;87.26
28354;BME280;15603;50.878;8.036;2023-06-19T03:07:27;147851.00;;;19.36;87.07
28354;BME280;15603;50.878;8.036;2023-06-19T03:09:55;147832.66;;;19.28;86.03
28354;BME280;15603;50.878;8.036;2023-06-19T03:12:22;147819.22;;;19.22;85.93
28354;BME280;15603;50.878;8.036;2023-06-19T03:14:49;147835.13;;;19.29;85.91
28354;BME280;15603;50.878;8.036;2023-06-19T03:17:16;147815.59;;;19.21;86.00
28354;BME280;15603;50.878;8.036;2023-06-19T03:19:44;147798.47;;;19.14;86.25
28354;BME280;15603;50.878;8.036;2023-06-19T03:22:11;147781.34;;;19.07;87.15
28354;BME280;15603;50.878;8.036;2023-06-19T03:24:38;147778.91;;;19.06;87.30
28354;BME280;15603;50.878;8.036;2023-06-19T03:27:15;147754.44;;;18.95;86.46
28354;BME280;15603;50.878;8.036;2023-06-19T03:29:43;147781.34;;;19.07;85.65
28354;BME280;15603;50.878;8.036;2023-06-19T03:32:14;147830.25;;;19.27;84.50
28354;BME280;15603;50.878;8.036;2023-06-19T03:34:42;147859.56;;;19.39;83.43
28354;BME280;15603;50.878;8.036;2023-06-19T03:37:10;147854.69;;;19.37;84.08
28354;BME280;15603;50.878;8.036;2023-06-19T03:39:37;147881.56;;;19.49;83.76
28354;BME280;15603;50.878;8.036;2023-06-19T03:42:08;147843.69;;;19.33;83.26
28354;BME280;15603;50.878;8.036;2023-06-19T03:44:35;147873.00;;;19.45;83.23
28354;BME280;15603;50.878;8.036;2023-06-19T03:47:02;147873.00;;;19.45;83.24
28354;BME280;15603;50.878;8.036;2023-06-19T03:49:29;147864.44;;;19.41;83.27
28354;BME280;15603;50.878;8.036;2023-06-19T03:51:57;147852.25;;;19.36;82.89
28354;BME280;15603;50.878;8.036;2023-06-19T03:54:24;147846.13;;;19.34;83.69
28354;BME280;15603;50.878;8.036;2023-06-19T03:56:53;147860.81;;;19.40;83.15
28354;BME280;15603;50.878;8.036;2023-06-19T03:59:20;147874.22;;;19.46;84.47
28354;BME280;15603;50.878;8.036;2023-06-19T04:01:47;147884.03;;;19.50;85.61
28354;BME280;15603;50.878;8.036;2023-06-19T04:04:16;147904.81;;;19.58;85.68
28354;BME280;15603;50.878;8.036;2023-06-19T04:06:43;147855.88;;;19.38;86.23
28354;BME280;15603;50.878;8.036;2023-06-19T04:09:10;147835.13;;;19.29;85.42
28354;BME280;15603;50.878;8.036;2023-06-19T04:11:37;147829.03;;;19.27;84.64
28354;BME280;15603;50.878;8.036;2023-06-19T04:14:04;147842.47;;;19.32;84.22
28354;BME280;15603;50.878;8.036;2023-06-19T04:16:31;147851.00;;;19.36;84.22
28354;BME280;15603;50.878;8.036;2023-06-19T04:18:58;147852.25;;;19.36;85.28
28354;BME280;15603;50.878;8.036;2023-06-19T04:21:26;147842.47;;;19.32;84.77
28354;BME280;15603;50.878;8.036;2023-06-19T04:23:53;147866.91;;;19.42;84.83
28354;BME280;15603;50.878;8.036;2023-06-19T04:26:20;147869.34;;;19.43;85.10
28354;BME280;15603;50.878;8.036;2023-06-19T04:28:48;147874.22;;;19.46;85.07
28354;BME280;15603;50.878;8.036;2023-06-19T04:31:15;147925.59;;;19.67;85.00
28354;BME280;15603;50.878;8.036;2023-06-19T04:33:45;147884.03;;;19.50;83.64
28354;BME280;15603;50.878;8.036;2023-06-19T04:36:12;147983.09;;;19.91;82.87
28354;BME280;15603;50.878;8.036;2023-06-19T04:38:40;148033.25;;;20.12;82.42
28354;BME280;15603;50.878;8.036;2023-06-19T04:41:07;148082.19;;;20.33;81.42
28354;BME280;15603;50.878;8.036;2023-06-19T04:43:34;148111.53;;;20.45;79.70
28354;BME280;15603;50.878;8.036;2023-06-19T04:46:02;148175.19;;;20.72;77.16
28354;BME280;15603;50.878;8.036;2023-06-19T04:48:31;148208.22;;;20.86;75.85
28354;BME280;15603;50.878;8.036;2023-06-19T04:50:58;148216.78;;;20.89;76.93
28354;BME280;15603;50.878;8.036;2023-06-19T04:53:27;148246.19;;;21.02;75.38
28354;BME280;15603;50.878;8.036;2023-06-19T04:55:54;148264.47;;;21.09;75.05
28354;BME280;15603;50.878;8.036;2023-06-19T04:58:22;148299.97;;;21.24;73.20
28354;BME280;15603;50.878;8.036;2023-06-19T05:00:49;148263.28;;;21.09;74.16
28354;BME280;15603;50.878;8.036;2023-06-19T05:03:18;148325.69;;;21.35;74.44
28354;BME280;15603;50.878;8.036;2023-06-19T05:05:45;148342.84;;;21.42;73.90
28354;BME280;15603;50.878;8.036;2023-06-19T05:08:12;148358.78;;;21.49;74.26
28354;BME280;15603;50.878;8.036;2023-06-19T05:10:40;148395.50;;;21.64;72.94
28354;BME280;15603;50.878;8.036;2023-06-19T05:13:07;148419.97;;;21.74;71.68
28354;BME280;15603;50.878;8.036;2023-06-19T05:15:34;148423.66;;;21.76;71.81
28354;BME280;15603;50.878;8.036;2023-06-19T05:18:01;148396.72;;;21.65;72.38
28354;BME280;15603;50.878;8.036;2023-06-19T05:20:28;148393.03;;;21.63;72.58
28354;BME280;15603;50.878;8.036;2023-06-19T05:22:55;148380.81;;;21.58;72.77
28354;BME280;15603;50.878;8.036;2023-06-19T05:25:22;148388.16;;;21.61;72.40
28354;BME280;15603;50.878;8.036;2023-06-19T05:27:49;148419.97;;;21.74;71.86
28354;BME280;15603;50.878;8.036;2023-06-19T05:30:16;148339.16;;;21.41;73.41
28354;BME280;15603;50.878;8.036;2023-06-19T05:32:43;148378.34;;;21.57;73.65
28354;BME280;15603;50.878;8.036;2023-06-19T05:35:11;148429.75;;;21.79;73.11
28354;BME280;15603;50.878;8.036;2023-06-19T05:37:42;148461.59;;;21.92;72.05
28354;BME280;15603;50.878;8.036;2023-06-19T05:40:10;148479.97;;;22.00;72.07
28354;BME280;15603;50.878;8.036;2023-06-19T05:42:39;148513.06;;;22.13;72.29
28354;BME280;15603;50.878;8.036;2023-06-19T05:45:06;148508.16;;;22.11;70.90
28354;BME280;15603;50.878;8.036;2023-06-19T05:47:34;148410.19;;;21.70;71.84
28354;BME280;15603;50.878;8.036;2023-06-19T05:50:01;148503.22;;;22.09;72.50
28354;BME280;15603;50.878;8.036;2023-06-19T05:52:28;148542.47;;;22.26;71.83
28354;BME280;15603;50.878;8.036;2023-06-19T05:54:55;148493.44;;;22.05;73.08
28354;BME280;15603;50.878;8.036;2023-06-19T05:57:25;148549.84;;;22.29;73.09
28354;BME280;15603;50.878;8.036;2023-06-19T05:59:52;148562.06;;;22.34;71.32
28354;BME280;15603;50.878;8.036;2023-06-19T06:02:20;148623.31;;;22.60;70.96
28354;BME280;15603;50.878;8.036;2023-06-19T06:04:47;148598.78;;;22.49;72.66
28354;BME280;15603;50.878;8.036;2023-06-19T06:07:14;148664.97;;;22.77;70.66
28354;BME280;15603;50.878;8.036;2023-06-19T06:09:41;148682.06;;;22.84;69.29
28354;BME280;15603;50.878;8.036;2023-06-19T06:12:08;148689.44;;;22.87;70.14
28354;BME280;15603;50.878;8.036;2023-06-19T06:14:35;148689.44;;;22.87;69.45
28354;BME280;15603;50.878;8.036;2023-06-19T06:17:02;148669.84;;;22.79;69.36
28354;BME280;15603;50.878;8.036;2023-06-19T06:19:32;148660.06;;;22.75;71.71
28354;BME280;15603;50.878;8.036;2023-06-19T06:21:59;148652.69;;;22.72;70.58
28354;BME280;15603;50.878;8.036;2023-06-19T06:24:26;148620.84;;;22.59;70.06
28354;BME280;15603;50.878;8.036;2023-06-19T06:26:54;148541.25;;;22.25;72.83
28354;BME280;15603;50.878;8.036;2023-06-19T06:29:21;148514.28;;;22.14;72.82
28354;BME280;15603;50.878;8.036;2023-06-19T06:31:48;148527.75;;;22.20;73.35
28354;BME280;15603;50.878;8.036;2023-06-19T06:34:15;148500.78;;;22.08;74.02
28354;BME280;15603;50.878;8.036;2023-06-19T06:36:42;148494.69;;;22.06;74.46
28354;BME280;15603;50.878;8.036;2023-06-19T06:39:27;148468.97;;;21.95;76.39
28354;BME280;15603;50.878;8.036;2023-06-19T06:41:55;148503.22;;;22.09;74.98
28354;BME280;15603;50.878;8.036;2023-06-19T06:44:22;148500.78;;;22.08;74.23
28354;BME280;15603;50.878;8.036;2023-06-19T06:46:49;148432.22;;;21.80;75.52
28354;BME280;15603;50.878;8.036;2023-06-19T06:49:18;148439.59;;;21.83;75.65
28354;BME280;15603;50.878;8.036;2023-06-19T06:51:47;148439.59;;;21.83;75.82
28354;BME280;15603;50.878;8.036;2023-06-19T06:54:14;148462.84;;;21.92;76.17
28354;BME280;15603;50.878;8.036;2023-06-19T06:56:41;148508.16;;;22.11;74.70
28354;BME280;15603;50.878;8.036;2023-06-19T06:59:08;148473.84;;;21.97;75.25
28354;BME280;15603;50.878;8.036;2023-06-19T07:01:35;148482.44;;;22.01;74.88
28354;BME280;15603;50.878;8.036;2023-06-19T07:04:03;148416.34;;;21.73;76.21
28354;BME280;15603;50.878;8.036;2023-06-19T07:06:30;148434.69;;;21.81;77.02
28354;BME280;15603;50.878;8.036;2023-06-19T07:08:57;148453.06;;;21.88;76.44
28354;BME280;15603;50.878;8.036;2023-06-19T07:11:24;148513.06;;;22.13;75.62
28354;BME280;15603;50.878;8.036;2023-06-19T07:13:51;148504.47;;;22.10;77.04
28354;BME280;15603;50.878;8.036;2023-06-19T07:16:18;148638.00;;;22.66;74.16
28354;BME280;15603;50.878;8.036;2023-06-19T07:18:45;148660.06;;;22.75;73.19
28354;BME280;15603;50.878;8.036;2023-06-19T07:21:13;148672.28;;;22.80;71.48
28354;BME280;15603;50.878;8.036;2023-06-19T07:23:42;148740.94;;;23.09;71.81
28354;BME280;15603;50.878;8.036;2023-06-19T07:26:10;148738.50;;;23.08;68.88
28354;BME280;15603;50.878;8.036;2023-06-19T07:28:37;148736.03;;;23.07;70.59
28354;BME280;15603;50.878;8.036;2023-06-19T07:31:04;148787.47;;;23.28;69.29
28354;BME280;15603;50.878;8.036;2023-06-19T07:33:31;148733.59;;;23.06;68.82
28354;BME280;15603;50.878;8.036;2023-06-19T07:35:58;148682.06;;;22.84;69.83
28354;BME280;15603;50.878;8.036;2023-06-19T07:38:25;148633.09;;;22.64;69.99
28354;BME280;15603;50.878;8.036;2023-06-19T07:40:52;148625.75;;;22.61;71.98
28354;BME280;15603;50.878;8.036;2023-06-19T07:43:19;148679.66;;;22.83;70.19
28354;BME280;15603;50.878;8.036;2023-06-19T07:45:49;148673.53;;;22.81;69.96
28354;BME280;15603;50.878;8.036;2023-06-19T07:48:16;148711.50;;;22.97;71.27
28354;BME280;15603;50.878;8.036;2023-06-19T07:50:43;148743.41;;;23.10;68.96
28354;BME280;15603;50.878;8.036;2023-06-19T07:53:11;148780.16;;;23.25;67.14
28354;BME280;15603;50.878;8.036;2023-06-19T07:55:38;148782.59;;;23.26;68.81
28354;BME280;15603;50.878;8.036;2023-06-19T07:58:05;148799.75;;;23.33;68.18
28354;BME280;15603;50.878;8.036;2023-06-19T08:00:32;148778.91;;;23.25;69.00
28354;BME280;15603;50.878;8.036;2023-06-19T08:02:59;148837.72;;;23.49;69.59
28354;BME280;15603;50.878;8.036;2023-06-19T08:05:26;148835.28;;;23.48;67.30
28354;BME280;15603;50.878;8.036;2023-06-19T08:07:53;148770.38;;;23.21;67.21
28354;BME280;15603;50.878;8.036;2023-06-19T08:10:20;148851.19;;;23.55;67.18
28354;BME280;15603;50.878;8.036;2023-06-19T08:12:47;148883.06;;;23.68;66.92
28354;BME280;15603;50.878;8.036;2023-06-19T08:15:16;148740.94;;;23.09;67.25
28354;BME280;15603;50.878;8.036;2023-06-19T08:17:43;148937.06;;;23.91;66.32
28354;BME280;15603;50.878;8.036;2023-06-19T08:20:10;148917.44;;;23.83;65.04
28354;BME280;15603;50.878;8.036;2023-06-19T08:22:38;148932.16;;;23.89;64.61
28354;BME280;15603;50.878;8.036;2023-06-19T08:25:05;148959.13;;;24.00;65.00
28354;BME280;15603;50.878;8.036;2023-06-19T08:27:32;148971.34;;;24.05;64.48
28354;BME280;15603;50.878;8.036;2023-06-19T08:30:00;148887.97;;;23.70;64.25
28354;BME280;15603;50.878;8.036;2023-06-19T08:32:27;148803.44;;;23.35;65.69
28354;BME280;15603;50.878;8.036;2023-06-19T08:34:54;148834.03;;;23.48;64.54
28354;BME280;15603;50.878;8.036;2023-06-19T08:37:21;148845.09;;;23.52;63.87
28354;BME280;15603;50.878;8.036;2023-06-19T08:39:48;148919.88;;;23.84;64.68
28354;BME280;15603;50.878;8.036;2023-06-19T08:42:15;148956.66;;;23.99;65.60
28354;BME280;15603;50.878;8.036;2023-06-19T08:44:42;148975.03;;;24.07;63.55
28354;BME280;15603;50.878;8.036;2023-06-19T08:47:09;149015.50;;;24.24;62.57
28354;BME280;15603;50.878;8.036;2023-06-19T08:49:39;149055.97;;;24.41;62.80
28354;BME280;15603;50.878;8.036;2023-06-19T08:52:06;149005.69;;;24.20;64.86
28354;BME280;15603;50.878;8.036;2023-06-19T08:54:34;148983.63;;;24.10;63.69
28354;BME280;15603;50.878;8.036;2023-06-19T08:57:11;149089.09;;;24.55;62.37
28354;BME280;15603;50.878;8.036;2023-06-19T08:59:39;149125.88;;;24.70;62.36
28354;BME280;15603;50.878;8.036;2023-06-19T09:02:08;149151.66;;;24.81;61.88
28354;BME280;15603;50.878;8.036;2023-06-19T09:04:35;149156.56;;;24.83;59.67
28354;BME280;15603;50.878;8.036;2023-06-19T09:07:03;149212.97;;;25.06;58.99
28354;BME280;15603;50.878;8.036;2023-06-19T09:09:45;149228.88;;;25.13;57.83
28354;BME280;15603;50.878;8.036;2023-06-19T09:12:15;149128.31;;;24.71;59.05
28354;BME280;15603;50.878;8.036;2023-06-19T09:14:51;149173.69;;;24.90;58.94
28354;BME280;15603;50.878;8.036;2023-06-19T09:17:20;149179.84;;;24.93;59.51
28354;BME280;15603;50.878;8.036;2023-06-19T09:19:51;149174.97;;;24.91;58.46
28354;BME280;15603;50.878;8.036;2023-06-19T09:22:21;149173.69;;;24.90;59.48
28354;BME280;15603;50.878;8.036;2023-06-19T09:24:49;149152.88;;;24.81;57.80
28354;BME280;15603;50.878;8.036;2023-06-19T09:27:18;149172.47;;;24.89;57.54
28354;BME280;15603;50.878;8.036;2023-06-19T09:29:50;149157.78;;;24.83;59.58
28354;BME280;15603;50.878;8.036;2023-06-19T09:32:18;149204.38;;;25.03;58.65
28354;BME280;15603;50.878;8.036;2023-06-19T09:34:48;149109.91;;;24.63;58.23
28354;BME280;15603;50.878;8.036;2023-06-19T09:37:30;149170.06;;;24.88;60.65
28354;BME280;15603;50.878;8.036;2023-06-19T09:40:04;149130.78;;;24.72;61.79
28354;BME280;15603;50.878;8.036;2023-06-19T09:42:40;149172.47;;;24.89;60.97
28354;BME280;15603;50.878;8.036;2023-06-19T09:45:14;149108.72;;;24.63;61.18
28354;BME280;15603;50.878;8.036;2023-06-19T09:47:46;149133.25;;;24.73;61.13
28354;BME280;15603;50.878;8.036;2023-06-19T09:50:16;149208.06;;;25.04;60.23
28354;BME280;15603;50.878;8.036;2023-06-19T09:52:47;149181.06;;;24.93;59.44
28354;BME280;15603;50.878;8.036;2023-06-19T09:55:18;149184.75;;;24.95;59.21
28354;BME280;15603;50.878;8.036;2023-06-19T09:57:46;149223.97;;;25.11;59.22
28354;BME280;15603;50.878;8.036;2023-06-19T10:00:15;149249.75;;;25.22;58.92
28354;BME280;15603;50.878;8.036;2023-06-19T10:02:49;149395.81;;;25.83;58.55
28354;BME280;15603;50.878;8.036;2023-06-19T10:05:16;149430.19;;;25.97;59.01
28354;BME280;15603;50.878;8.036;2023-06-19T10:07:45;149441.22;;;26.02;57.92
28354;BME280;15603;50.878;8.036;2023-06-19T10:10:24;149381.03;;;25.77;53.72
28354;BME280;15603;50.878;8.036;2023-06-19T10:12:55;149359.00;;;25.67;55.72
28354;BME280;15603;50.878;8.036;2023-06-19T10:15:27;149292.72;;;25.40;56.35
28354;BME280;15603;50.878;8.036;2023-06-19T10:18:02;149276.78;;;25.33;55.83
28354;BME280;15603;50.878;8.036;2023-06-19T10:20:34;149305.00;;;25.45;55.37
28354;BME280;15603;50.878;8.036;2023-06-19T10:23:15;149210.50;;;25.05;56.19
28354;BME280;15603;50.878;8.036;2023-06-19T10:25:47;149280.47;;;25.35;56.26
28354;BME280;15603;50.878;8.036;2023-06-19T10:28:22;149356.53;;;25.66;54.26
28354;BME280;15603;50.878;8.036;2023-06-19T10:31:00;149286.59;;;25.37;54.72
28354;BME280;15603;50.878;8.036;2023-06-19T10:33:33;149378.63;;;25.76;53.31
28354;BME280;15603;50.878;8.036;2023-06-19T10:36:01;149347.91;;;25.63;55.76
28354;BME280;15603;50.878;8.036;2023-06-19T10:38:41;149451.06;;;26.06;54.94
28354;BME280;15603;50.878;8.036;2023-06-19T10:43:56;149415.47;;;25.91;53.13
28354;BME280;15603;50.878;8.036;2023-06-19T10:46:28;149438.78;;;26.01;53.48
28354;BME280;15603;50.878;8.036;2023-06-19T10:48:57;149322.19;;;25.52;53.90
28354;BME280;15603;50.878;8.036;2023-06-19T10:51:28;149307.44;;;25.46;55.06
28354;BME280;15603;50.878;8.036;2023-06-19T10:53:56;149291.50;;;25.39;54.71
28354;BME280;15603;50.878;8.036;2023-06-19T10:56:24;149260.81;;;25.26;55.67
28354;BME280;15603;50.878;8.036;2023-06-19T10:59:05;149232.56;;;25.15;56.28
28354;BME280;15603;50.878;8.036;2023-06-19T11:01:38;149268.19;;;25.30;57.07
28354;BME280;15603;50.878;8.036;2023-06-19T11:04:08;149114.88;;;24.65;56.72
28354;BME280;15603;50.878;8.036;2023-06-19T11:06:36;149194.56;;;24.99;57.93
28354;BME280;15603;50.878;8.036;2023-06-19T11:09:05;149198.25;;;25.00;58.43
28354;BME280;15603;50.878;8.036;2023-06-19T11:11:41;149263.31;;;25.27;55.43
28354;BME280;15603;50.878;8.036;2023-06-19T11:14:10;149302.53;;;25.44;55.11
28354;BME280;15603;50.878;8.036;2023-06-19T11:16:39;149219.06;;;25.09;56.06
28354;BME280;15603;50.878;8.036;2023-06-19T11:19:08;149248.53;;;25.21;53.86
28354;BME280;15603;50.878;8.036;2023-06-19T11:21:37;149225.25;;;25.12;54.08
28354;BME280;15603;50.878;8.036;2023-06-19T11:24:11;149150.41;;;24.80;54.02
28354;BME280;15603;50.878;8.036;2023-06-19T11:26:43;149226.44;;;25.12;54.80
28354;BME280;15603;50.878;8.036;2023-06-19T11:29:24;149246.06;;;25.20;51.51
28354;BME280;15603;50.878;8.036;2023-06-19T11:32:03;149339.34;;;25.59;51.47
28354;BME280;15603;50.878;8.036;2023-06-19T11:34:34;149336.91;;;25.58;51.74
28354;BME280;15603;50.878;8.036;2023-06-19T11:37:16;149447.38;;;26.04;51.59
28354;BME280;15603;50.878;8.036;2023-06-19T11:39:45;149503.81;;;26.28;51.84
28354;BME280;15603;50.878;8.036;2023-06-19T11:42:13;149524.69;;;26.37;50.18
28354;BME280;15603;50.878;8.036;2023-06-19T11:44:54;149489.09;;;26.22;50.04
28354;BME280;15603;50.878;8.036;2023-06-19T11:47:22;149419.16;;;25.93;50.29
28354;BME280;15603;50.878;8.036;2023-06-19T11:49:50;149545.53;;;26.45;52.62
28354;BME280;15603;50.878;8.036;2023-06-19T11:52:17;149562.72;;;26.53;50.07
28354;BME280;15603;50.878;8.036;2023-06-19T11:54:46;149535.72;;;26.41;48.61
28354;BME280;15603;50.878;8.036;2023-06-19T11:57:13;149571.34;;;26.56;49.44
28354;BME280;15603;50.878;8.036;2023-06-19T11:59:40;149635.22;;;26.83;49.54
28354;BME280;15603;50.878;8.036;2023-06-19T12:02:08;149659.75;;;26.93;48.73
28354;BME280;15603;50.878;8.036;2023-06-19T12:04:36;149673.25;;;26.99;49.34
28354;BME280;15603;50.878;8.036;2023-06-19T12:07:03;149719.91;;;27.18;48.77
28354;BME280;15603;50.878;8.036;2023-06-19T12:09:31;149673.25;;;26.99;46.99
28354;BME280;15603;50.878;8.036;2023-06-19T12:11:58;149754.31;;;27.33;48.10
28354;BME280;15603;50.878;8.036;2023-06-19T12:14:26;149699.00;;;27.10;46.34
28354;BME280;15603;50.878;8.036;2023-06-19T12:16:53;149748.19;;;27.30;46.75
28354;BME280;15603;50.878;8.036;2023-06-19T12:19:22;149722.34;;;27.19;47.80
28354;BME280;15603;50.878;8.036;2023-06-19T12:21:49;149754.31;;;27.33;47.35
28354;BME280;15603;50.878;8.036;2023-06-19T12:24:16;149783.81;;;27.45;46.10
28354;BME280;15603;50.878;8.036;2023-06-19T12:26:44;149862.41;;;27.78;47.57
28354;BME280;15603;50.878;8.036;2023-06-19T12:29:11;149906.63;;;27.96;44.72
28354;BME280;15603;50.878;8.036;2023-06-19T12:31:38;149869.75;;;27.81;44.63
28354;BME280;15603;50.878;8.036;2023-06-19T12:34:06;149921.41;;;28.03;44.82
28354;BME280;15603;50.878;8.036;2023-06-19T12:36:53;150012.28;;;28.40;44.46
28354;BME280;15603;50.878;8.036;2023-06-19T12:39:21;150023.38;;;28.45;42.95
28354;BME280;15603;50.878;8.036;2023-06-19T12:41:48;149996.34;;;28.34;43.09
28354;BME280;15603;50.878;8.036;2023-06-19T12:44:15;149850.09;;;27.73;44.04
28354;BME280;15603;50.878;8.036;2023-06-19T12:46:42;149884.53;;;27.87;43.49
28354;BME280;15603;50.878;8.036;2023-06-19T12:49:09;149930.03;;;28.06;43.51
28354;BME280;15603;50.878;8.036;2023-06-19T12:51:36;149862.41;;;27.78;43.81
28354;BME280;15603;50.878;8.036;2023-06-19T12:54:04;150011.06;;;28.40;44.63
28354;BME280;15603;50.878;8.036;2023-06-19T12:56:31;150034.41;;;28.50;42.57
28354;BME280;15603;50.878;8.036;2023-06-19T12:58:58;149966.88;;;28.22;43.17
28354;BME280;15603;50.878;8.036;2023-06-19T13:01:25;150060.28;;;28.61;41.45